Time;durP1;ratioP1;P1;durP2;ratioP2;P2;SDS_P1;SDS_P2;PMS_P1;PMS_P2;Temp;Humidity;BMP_temperature;BMP_pressure;BME280_temperature;BME280_humidity;BME280_pressure;Samples;Min_cycle;Max_cycle;Signal;HPM_P1;HPM_P2
2022/04/08 00:00:05;;;;;;;4.35;1.40;;;9.10;1.00;;;;;;7364451;19;20010;-62
2022/04/08 00:02:38;;;;;;;7.18;1.42;;;9.10;1.00;;;;;;7359839;19;20115;-62
2022/04/08 00:05:10;;;;;;;7.80;1.40;;;9.10;1.00;;;;;;7361739;19;20018;-62
2022/04/08 00:07:40;;;;;;;2.53;1.05;;;9.00;1.00;;;;;;7362608;19;20074;-62
2022/04/08 00:10:13;;;;;;;7.53;1.08;;;9.00;1.00;;;;;;7387112;19;20048;-62
2022/04/08 00:12:44;;;;;;;5.95;1.23;;;9.00;1.00;;;;;;7359031;19;20024;-61
2022/04/08 00:15:14;;;;;;;6.32;1.35;;;9.00;1.00;;;;;;7360072;19;20025;-62
2022/04/08 00:17:44;;;;;;;5.85;1.80;;;9.00;1.00;;;;;;7361705;19;20065;-62
2022/04/08 00:20:14;;;;;;;7.43;1.45;;;9.00;1.00;;;;;;7365367;19;20027;-62
2022/04/08 00:22:45;;;;;;;4.18;1.13;;;9.00;1.00;;;;;;7360880;19;20014;-62
2022/04/08 00:25:18;;;;;;;5.05;1.30;;;9.10;1.00;;;;;;7360886;19;20394;-62
2022/04/08 00:27:48;;;;;;;6.03;1.63;;;9.00;1.00;;;;;;7381659;19;20081;-61
2022/04/08 00:30:17;;;;;;;6.90;1.35;;;9.00;1.00;;;;;;7363607;19;20014;-62
2022/04/08 00:32:47;;;;;;;6.60;1.42;;;9.00;1.00;;;;;;7357551;19;20014;-61
2022/04/08 00:35:17;;;;;;;7.03;1.50;;;9.00;1.00;;;;;;7360673;19;20018;-62
2022/04/08 00:37:49;;;;;;;4.13;1.00;;;9.00;1.00;;;;;;7361120;19;20511;-62
2022/04/08 00:40:22;;;;;;;3.35;1.08;;;9.00;1.00;;;;;;7362912;19;20023;-62
2022/04/08 00:42:52;;;;;;;6.88;1.23;;;9.00;1.00;;;;;;7381599;19;20014;-61
2022/04/08 00:45:21;;;;;;;6.10;1.20;;;9.00;1.00;;;;;;7359148;19;20078;-61
2022/04/08 00:47:51;;;;;;;4.65;1.42;;;9.00;1.00;;;;;;7358106;19;20006;-61
2022/04/08 00:50:22;;;;;;;4.80;1.30;;;9.00;1.00;;;;;;7364402;19;20478;-61
2022/04/08 00:52:52;;;;;;;4.32;1.33;;;9.00;1.00;;;;;;7358390;19;20011;-61
2022/04/08 00:55:24;;;;;;;5.95;1.60;;;9.10;1.00;;;;;;7359799;19;20656;-61
2022/04/08 00:57:55;;;;;;;3.05;1.08;;;9.00;1.00;;;;;;7383630;19;20073;-61
2022/04/08 01:00:25;;;;;;;5.72;1.50;;;9.00;1.00;;;;;;7364451;19;20048;-61
2022/04/08 01:02:55;;;;;;;5.75;1.77;;;9.00;1.00;;;;;;7357408;19;20159;-61
2022/04/08 01:05:25;;;;;;;3.17;0.95;;;9.00;1.00;;;;;;7359609;19;20006;-61
2022/04/08 01:08:17;;;;;;;4.90;1.20;;;9.00;1.00;;;;;;7359241;19;20052;-62
2022/04/08 01:10:52;;;;;;;6.68;1.40;;;9.00;1.00;;;;;;7361905;19;20019;-62
2022/04/08 01:13:22;;;;;;;5.68;1.20;;;9.00;1.00;;;;;;7358560;19;20015;-62
2022/04/08 01:15:52;;;;;;;5.65;1.17;;;8.90;1.00;;;;;;7379744;19;20018;-62
2022/04/08 01:18:22;;;;;;;5.57;1.42;;;9.00;1.00;;;;;;7358789;19;20016;-62
2022/04/08 01:20:52;;;;;;;5.30;1.58;;;8.90;1.00;;;;;;7363803;19;20015;-62
2022/04/08 01:23:22;;;;;;;8.23;1.38;;;9.00;1.00;;;;;;7359635;19;20098;-62
2022/04/08 01:25:54;;;;;;;6.85;1.98;;;9.00;1.00;;;;;;7357474;19;20015;-61
2022/04/08 01:28:25;;;;;;;4.78;1.33;;;9.00;1.00;;;;;;7358115;19;20488;-62
2022/04/08 01:30:56;;;;;;;6.07;1.63;;;8.90;1.00;;;;;;7383606;19;20051;-61
2022/04/08 01:33:26;;;;;;;6.00;1.10;;;9.00;1.00;;;;;;7357680;19;20093;-61
2022/04/08 01:35:57;;;;;;;6.93;1.70;;;8.90;1.00;;;;;;7360189;19;20006;-62
2022/04/08 01:38:26;;;;;;;6.93;1.52;;;8.80;1.00;;;;;;7359445;19;20521;-62
2022/04/08 01:40:59;;;;;;;4.70;1.13;;;8.80;1.00;;;;;;7361590;19;20014;-62
2022/04/08 01:43:29;;;;;;;5.93;1.60;;;8.80;1.00;;;;;;7357843;19;20090;-63
2022/04/08 01:46:00;;;;;;;3.58;1.00;;;8.80;1.00;;;;;;7381217;19;20010;-62
2022/04/08 01:48:30;;;;;;;2.85;1.10;;;8.80;1.00;;;;;;7357871;19;20022;-62
2022/04/08 01:51:00;;;;;;;9.52;1.25;;;8.80;1.00;;;;;;7362151;19;20013;-62
2022/04/08 01:53:30;;;;;;;7.13;1.30;;;8.80;1.00;;;;;;7356594;19;20022;-61
2022/04/08 01:56:02;;;;;;;6.53;1.75;;;8.70;1.00;;;;;;7358236;19;20019;-62
2022/04/08 01:58:32;;;;;;;5.10;1.30;;;8.70;1.00;;;;;;7360379;19;20004;-61
2022/04/08 02:01:02;;;;;;;6.25;1.17;;;8.70;1.00;;;;;;7389001;19;20119;-62
2022/04/08 02:03:33;;;;;;;6.30;1.20;;;8.70;1.00;;;;;;7363611;19;20033;-62
2022/04/08 02:06:03;;;;;;;5.50;1.30;;;8.70;1.00;;;;;;7364476;19;20026;-62
2022/04/08 02:08:32;;;;;;;4.22;1.33;;;8.70;1.00;;;;;;7364832;19;20010;-62
2022/04/08 02:11:05;;;;;;;7.20;1.17;;;8.70;1.00;;;;;;7367923;19;20030;-62
2022/04/08 02:13:35;;;;;;;6.00;1.48;;;8.60;1.00;;;;;;7363660;19;20018;-61
2022/04/08 02:16:05;;;;;;;6.90;1.45;;;8.60;1.00;;;;;;7387649;19;20025;-62
2022/04/08 02:18:35;;;;;;;5.43;1.27;;;8.60;1.00;;;;;;7365301;19;20040;-62
2022/04/08 02:21:06;;;;;;;8.27;2.08;;;8.60;1.00;;;;;;7368210;19;20013;-62
2022/04/08 02:23:36;;;;;;;6.25;1.55;;;8.50;1.00;;;;;;7362978;19;20018;-62
2022/04/08 02:26:11;;;;;;;4.00;1.40;;;8.60;1.00;;;;;;7365521;19;20577;-62
2022/04/08 02:28:40;;;;;;;;;;;8.60;1.00;;;;;;7364508;19;20019;-62
2022/04/08 02:31:10;;;;;;;6.40;1.48;;;8.60;1.00;;;;;;7389006;19;20412;-62
2022/04/08 02:33:41;;;;;;;4.63;1.52;;;8.60;1.00;;;;;;7362861;19;20034;-62
2022/04/08 02:36:11;;;;;;;4.97;1.73;;;8.50;1.00;;;;;;7364986;19;20074;-62
2022/04/08 02:38:41;;;;;;;5.07;1.45;;;8.50;1.00;;;;;;7364954;19;20010;-61
2022/04/08 02:41:13;;;;;;;7.20;1.20;;;8.50;1.00;;;;;;7365280;19;20010;-61
2022/04/08 02:43:43;;;;;;;4.65;1.48;;;8.40;1.00;;;;;;7360799;19;20022;-61
2022/04/08 02:46:13;;;;;;;7.68;1.55;;;8.40;1.00;;;;;;7365230;19;20020;-61
2022/04/08 02:48:43;;;;;;;5.93;1.48;;;8.40;1.00;;;;;;7386363;19;20045;-61
2022/04/08 02:51:13;;;;;;;4.07;1.52;;;8.40;1.00;;;;;;7367920;19;20070;-61
2022/04/08 02:53:43;;;;;;;5.32;1.45;;;8.40;1.00;;;;;;7361258;19;20098;-60
2022/04/08 02:56:15;;;;;;;5.90;1.50;;;8.30;1.00;;;;;;7364408;19;20085;-61
2022/04/08 02:58:48;;;;;;;5.78;1.30;;;8.30;1.00;;;;;;7363948;19;20038;-61
2022/04/08 03:01:18;;;;;;;5.82;1.17;;;8.30;1.00;;;;;;7388793;19;20011;-61
2022/04/08 03:03:48;;;;;;;7.07;1.30;;;8.20;1.00;;;;;;7358445;19;20573;-61
2022/04/08 03:06:18;;;;;;;6.15;1.50;;;8.20;1.00;;;;;;7362243;19;20014;-61
2022/04/08 03:08:48;;;;;;;3.05;0.98;;;8.20;1.00;;;;;;7362472;19;20010;-62
2022/04/08 03:11:22;;;;;;;5.57;1.60;;;8.10;1.00;;;;;;7367594;19;20017;-61
2022/04/08 03:13:52;;;;;;;7.82;1.70;;;8.10;1.00;;;;;;7361644;19;20007;-61
2022/04/08 03:16:22;;;;;;;5.85;1.50;;;8.10;1.00;;;;;;7385205;19;20018;-61
2022/04/08 03:18:52;;;;;;;4.75;0.98;;;8.20;1.00;;;;;;7363872;19;20011;-61
2022/04/08 03:21:22;;;;;;;4.32;1.20;;;8.10;1.00;;;;;;7365682;19;20006;-61
2022/04/08 03:23:52;;;;;;;4.10;1.30;;;8.10;1.00;;;;;;7359310;19;20022;-61
2022/04/08 03:26:24;;;;;;;5.88;1.70;;;8.00;1.00;;;;;;7363330;19;20102;-61
2022/04/08 03:28:54;;;;;;;4.55;1.33;;;8.00;1.00;;;;;;7362470;19;20362;-62
2022/04/08 03:31:24;;;;;;;8.35;2.13;;;8.00;1.00;;;;;;7386946;19;20542;-61
2022/04/08 03:33:54;;;;;;;3.45;1.30;;;7.90;1.00;;;;;;7358708;19;20014;-60
2022/04/08 03:36:24;;;;;;;6.20;1.10;;;7.90;1.00;;;;;;7360151;19;20423;-60
2022/04/08 03:38:54;;;;;;;7.35;1.60;;;7.90;1.00;;;;;;7362890;19;20068;-61
2022/04/08 03:41:27;;;;;;;5.40;1.20;;;7.90;1.00;;;;;;7365772;19;20016;-61
2022/04/08 03:43:56;;;;;;;8.70;1.20;;;7.80;1.00;;;;;;7359318;19;20497;-61
2022/04/08 03:46:27;;;;;;;6.15;1.35;;;7.90;1.00;;;;;;7385017;19;20014;-62
2022/04/08 03:48:56;;;;;;;10.10;2.15;;;7.80;1.00;;;;;;7363218;19;20023;-60
2022/04/08 03:51:26;;;;;;;4.25;1.20;;;7.90;1.00;;;;;;7364093;19;20007;-60
2022/04/08 03:53:57;;;;;;;6.07;1.60;;;8.00;1.00;;;;;;7356846;19;20014;-60
2022/04/08 03:56:30;;;;;;;3.30;1.23;;;7.90;1.00;;;;;;7360908;19;20035;-61
2022/04/08 03:59:00;;;;;;;7.50;1.63;;;8.00;1.00;;;;;;7362889;19;20014;-61
2022/04/08 04:01:30;;;;;;;7.90;1.42;;;7.90;1.00;;;;;;7387426;19;20106;-61
2022/04/08 04:04:00;;;;;;;5.75;1.17;;;7.90;1.00;;;;;;7359386;19;20055;-61
2022/04/08 04:06:30;;;;;;;9.38;1.50;;;7.90;1.00;;;;;;7361015;19;20107;-60
2022/04/08 04:09:00;;;;;;;6.28;1.70;;;7.90;1.00;;;;;;7362755;19;20022;-61
2022/04/08 04:11:33;;;;;;;4.65;1.40;;;7.90;1.00;;;;;;7364710;19;20557;-61
2022/04/08 04:14:03;;;;;;;6.78;1.48;;;7.90;1.00;;;;;;7359391;19;20066;-61
2022/04/08 04:16:33;;;;;;;6.95;1.52;;;7.90;1.00;;;;;;7364101;19;20118;-62
2022/04/08 04:19:03;;;;;;;8.02;1.60;;;7.90;1.00;;;;;;7384396;19;20016;-61
2022/04/08 04:21:33;;;;;;;7.53;1.75;;;7.90;1.00;;;;;;7361397;19;20016;-61
2022/04/08 04:24:03;;;;;;;6.15;1.20;;;7.90;1.00;;;;;;7359687;19;20014;-61
2022/04/08 04:26:35;;;;;;;3.20;1.05;;;7.80;1.00;;;;;;7362018;19;20023;-61
2022/04/08 04:29:05;;;;;;;11.50;1.70;;;7.90;1.00;;;;;;7361815;19;20820;-60
2022/04/08 04:31:35;;;;;;;8.85;1.17;;;7.80;1.00;;;;;;7364213;19;20014;-61
2022/04/08 04:34:05;;;;;;;7.72;1.83;;;7.80;1.00;;;;;;7380513;19;20007;-61
2022/04/08 04:36:35;;;;;;;5.00;1.27;;;7.80;1.00;;;;;;7359827;19;20083;-61
2022/04/08 04:39:05;;;;;;;8.65;1.67;;;7.80;1.00;;;;;;7361993;19;20025;-61
2022/04/08 04:41:38;;;;;;;4.32;1.10;;;7.80;1.00;;;;;;7364351;19;20103;-60
2022/04/08 04:44:08;;;;;;;7.03;1.52;;;7.80;1.00;;;;;;7357312;19;20014;-60
2022/04/08 04:46:38;;;;;;;7.80;2.20;;;7.80;1.00;;;;;;7359375;19;20019;-61
2022/04/08 04:49:08;;;;;;;8.63;1.40;;;7.70;1.00;;;;;;7383404;19;20024;-61
2022/04/08 04:51:38;;;;;;;6.70;1.67;;;7.70;1.00;;;;;;7362549;19;20007;-61
2022/04/08 04:54:08;;;;;;;5.38;2.50;;;7.70;1.00;;;;;;7357673;19;20010;-62
2022/04/08 04:56:42;;;;;;;9.50;2.05;;;7.70;1.00;;;;;;7358696;19;20018;-61
2022/04/08 04:59:13;;;;;;;6.13;1.50;;;7.60;1.00;;;;;;7361205;19;20438;-62
2022/04/08 05:01:42;;;;;;;6.22;2.05;;;7.60;1.00;;;;;;7362765;19;20018;-62
2022/04/08 05:04:12;;;;;;;9.23;2.00;;;7.70;1.00;;;;;;7381201;19;20011;-61
2022/04/08 05:06:42;;;;;;;7.95;2.17;;;7.70;1.00;;;;;;7358947;19;20006;-61
2022/04/08 05:09:12;;;;;;;6.72;1.52;;;7.70;1.00;;;;;;7359973;19;20490;-62
2022/04/08 05:11:45;;;;;;;5.57;1.75;;;7.70;1.00;;;;;;7362043;19;20019;-60
2022/04/08 05:14:15;;;;;;;4.80;1.60;;;7.70;1.00;;;;;;7359899;19;20131;-61
2022/04/08 05:16:45;;;;;;;14.00;2.10;;;7.70;1.00;;;;;;7359924;19;20557;-60
2022/04/08 05:19:16;;;;;;;5.07;1.48;;;7.70;1.00;;;;;;7380356;19;20015;-62
2022/04/08 05:21:46;;;;;;;5.45;1.67;;;7.70;1.00;;;;;;7360263;19;20022;-61
2022/04/08 05:24:16;;;;;;;9.25;2.08;;;7.70;1.00;;;;;;7359109;19;20438;-61
2022/04/08 05:26:49;;;;;;;7.93;2.05;;;7.70;1.00;;;;;;7359276;19;20014;-61
2022/04/08 05:29:20;;;;;;;5.85;1.83;;;7.70;1.00;;;;;;7359832;19;20086;-61
2022/04/08 05:31:50;;;;;;;7.38;1.35;;;7.70;1.00;;;;;;7358479;19;20022;-62
2022/04/08 05:34:21;;;;;;;4.68;1.27;;;7.70;1.00;;;;;;7387471;19;20379;-62
2022/04/08 05:36:50;;;;;;;6.57;1.90;;;7.70;1.00;;;;;;7363294;19;20015;-62
2022/04/08 05:39:20;;;;;;;6.38;2.20;;;7.80;1.00;;;;;;7367387;19;20027;-61
2022/04/08 05:41:53;;;;;;;9.05;1.77;;;7.80;1.00;;;;;;7367181;19;20074;-61
2022/04/08 05:44:23;;;;;;;9.93;1.73;;;7.90;1.00;;;;;;7366447;19;20474;-61
2022/04/08 05:46:53;;;;;;;5.32;1.70;;;7.90;1.00;;;;;;7366301;19;20004;-61
2022/04/08 05:49:25;;;;;;;7.93;1.42;;;7.90;1.00;;;;;;7386176;19;20010;-61
2022/04/08 05:51:55;;;;;;;9.32;2.05;;;8.00;1.00;;;;;;7363882;19;20853;-61
2022/04/08 05:54:28;;;;;;;9.50;1.92;;;8.00;1.00;;;;;;7366036;19;20031;-61
2022/04/08 05:57:07;;;;;;;7.03;1.42;;;8.10;1.00;;;;;;7367198;19;20011;-61
2022/04/08 05:59:39;;;;;;;6.38;1.98;;;8.10;1.00;;;;;;7364288;19;20398;-62
2022/04/08 06:02:13;;;;;;;7.32;1.73;;;8.20;1.00;;;;;;7365627;19;20010;-62
2022/04/08 06:04:43;;;;;;;9.98;1.90;;;8.20;1.00;;;;;;7365406;19;20021;-62
2022/04/08 06:07:13;;;;;;;6.70;1.80;;;8.30;1.00;;;;;;7388704;19;20031;-61
2022/04/08 06:09:42;;;;;;;10.07;1.58;;;8.20;1.00;;;;;;7362753;19;20074;-61
2022/04/08 06:12:15;;;;;;;7.65;1.70;;;8.40;1.00;;;;;;7364837;19;20034;-61
2022/04/08 06:14:45;;;;;;;4.22;1.45;;;8.30;1.00;;;;;;7366949;19;20011;-60
2022/04/08 06:17:15;;;;;;;13.35;2.35;;;8.30;1.00;;;;;;7367366;19;20019;-62
2022/04/08 06:19:47;;;;;;;13.35;2.08;;;8.40;1.00;;;;;;7362590;19;20467;-62
2022/04/08 06:22:16;;;;;;;7.43;1.45;;;8.50;1.00;;;;;;7387484;19;20070;-62
2022/04/08 06:24:46;;;;;;;7.85;1.90;;;8.50;1.00;;;;;;7364885;19;20007;-62
2022/04/08 06:27:19;;;;;;;8.70;2.00;;;8.50;1.00;;;;;;7365535;19;20074;-62
2022/04/08 06:29:49;;;;;;;12.32;1.80;;;8.50;1.00;;;;;;7362913;19;20014;-62
2022/04/08 06:32:19;;;;;;;12.98;1.70;;;8.50;1.00;;;;;;7363810;19;20017;-61
2022/04/08 06:34:49;;;;;;;4.85;1.65;;;8.50;1.00;;;;;;7365049;19;20021;-61
2022/04/08 06:37:21;;;;;;;3.15;1.20;;;8.50;1.00;;;;;;7388555;19;20074;-62
2022/04/08 06:39:51;;;;;;;7.63;1.65;;;8.40;1.00;;;;;;7362638;19;20016;-61
2022/04/08 06:42:23;;;;;;;3.55;1.23;;;8.50;1.00;;;;;;7364268;19;20390;-62
2022/04/08 06:44:53;;;;;;;7.40;1.33;;;8.40;1.00;;;;;;7364895;19;20010;-61
2022/04/08 06:47:24;;;;;;;5.55;1.42;;;8.50;1.00;;;;;;7363633;19;20051;-61
2022/04/08 06:49:54;;;;;;;5.40;1.25;;;8.60;1.00;;;;;;7361085;19;21750;-62
2022/04/08 06:52:23;;;;;;;2.80;1.13;;;8.50;1.00;;;;;;7383211;19;20018;-61
2022/04/08 06:54:53;;;;;;;5.28;0.95;;;8.40;1.00;;;;;;7364175;19;20002;-61
2022/04/08 06:57:26;;;;;;;4.85;1.10;;;8.40;1.00;;;;;;7362788;19;20021;-60
2022/04/08 06:59:56;;;;;;;5.75;1.20;;;8.30;1.00;;;;;;7361561;19;20014;-61
2022/04/08 07:02:25;;;;;;;5.18;1.17;;;8.20;1.00;;;;;;7363136;19;20032;-61
2022/04/08 07:05:01;;;;;;;3.33;1.10;;;8.10;1.00;;;;;;7364062;19;20011;-62
2022/04/08 07:07:31;;;;;;;5.53;1.20;;;8.10;1.00;;;;;;7386155;19;20056;-61
2022/04/08 07:10:01;;;;;;;3.40;1.48;;;8.00;1.00;;;;;;7360637;19;20492;-61
2022/04/08 07:12:34;;;;;;;5.35;1.15;;;8.10;1.00;;;;;;7359237;19;20641;-61
2022/04/08 07:15:04;;;;;;;7.10;1.20;;;8.20;1.00;;;;;;7364081;19;20031;-61
2022/04/08 07:17:35;;;;;;;5.93;1.17;;;8.20;1.00;;;;;;7364451;19;20010;-62
2022/04/08 07:20:21;;;;;;;3.70;0.80;;;8.30;1.00;;;;;;7360189;19;20006;-60
2022/04/08 07:22:51;;;;;;;4.43;1.10;;;8.10;1.00;;;;;;7360097;19;20016;-61
2022/04/08 07:25:21;;;;;;;4.45;0.90;;;8.00;1.00;;;;;;7385124;19;20446;-60
2022/04/08 07:27:56;;;;;;;6.70;1.17;;;7.90;1.00;;;;;;7362942;19;20020;-60
2022/04/08 07:30:26;;;;;;;4.47;1.03;;;7.90;1.00;;;;;;7359843;19;20044;-60
2022/04/08 07:32:56;;;;;;;5.32;1.30;;;7.80;1.20;;;;;;7362550;19;20018;-61
2022/04/08 07:35:28;;;;;;;4.47;0.80;;;7.90;2.20;;;;;;7363374;19;20011;-60
2022/04/08 07:37:58;;;;;;;6.28;1.17;;;7.80;1.90;;;;;;7363635;19;20510;-59
2022/04/08 07:40:28;;;;;;;5.22;1.10;;;7.70;3.10;;;;;;7381728;19;20018;-60
2022/04/08 07:43:00;;;;;;;19.50;2.08;;;7.70;3.90;;;;;;7361644;19;20109;-60
2022/04/08 07:45:30;;;;;;;7.95;1.83;;;7.70;7.00;;;;;;7364227;19;20011;-60
2022/04/08 07:48:01;;;;;;;7.80;1.88;;;7.70;7.10;;;;;;7363719;19;20019;-60
2022/04/08 07:50:32;;;;;;;5.13;1.13;;;7.70;7.20;;;;;;7358547;19;20017;-61
2022/04/08 07:53:02;;;;;;;7.15;1.60;;;7.60;8.40;;;;;;7361471;19;20045;-61
2022/04/08 07:55:32;;;;;;;4.03;1.15;;;7.50;9.40;;;;;;7375110;19;20014;-60
2022/04/08 07:58:06;;;;;;;6.50;1.00;;;7.40;8.30;;;;;;7385201;19;20022;-62
2022/04/08 08:00:36;;;;;;;3.72;1.15;;;7.40;6.80;;;;;;7359180;19;20017;-60
2022/04/08 08:03:06;;;;;;;5.15;1.27;;;7.50;7.20;;;;;;7362659;19;20006;-61
2022/04/08 08:05:36;;;;;;;2.65;1.15;;;7.40;9.10;;;;;;7362158;19;20011;-59
2022/04/08 08:08:07;;;;;;;13.52;2.17;;;7.50;10.10;;;;;;7361244;19;20481;-61
2022/04/08 08:10:39;;;;;;;4.68;1.42;;;7.50;10.90;;;;;;7359274;19;20010;-62
2022/04/08 08:13:11;;;;;;;5.65;0.95;;;7.50;11.10;;;;;;7381931;19;20602;-61
2022/04/08 08:15:41;;;;;;;14.15;5.15;;;7.40;9.60;;;;;;7363600;19;20081;-60
2022/04/08 08:18:11;;;;;;;6.43;1.42;;;7.50;12.00;;;;;;7362714;19;20014;-60
2022/04/08 08:20:42;;;;;;;7.65;1.42;;;7.60;12.40;;;;;;7357892;19;20486;-61
2022/04/08 08:23:12;;;;;;;7.45;1.30;;;7.60;11.50;;;;;;7360974;19;20253;-61
2022/04/08 08:25:44;;;;;;;5.25;1.15;;;7.60;10.70;;;;;;7360619;19;20011;-60
2022/04/08 08:28:23;;;;;;;3.50;0.90;;;7.80;13.50;;;;;;7382652;19;20023;-62
2022/04/08 08:30:53;;;;;;;4.88;1.00;;;7.70;12.60;;;;;;7360237;19;20006;-61
2022/04/08 08:33:25;;;;;;;6.50;1.10;;;7.80;12.80;;;;;;7360759;19;20038;-61
2022/04/08 08:35:55;;;;;;;3.72;0.77;;;7.80;11.30;;;;;;7362350;19;20006;-62
2022/04/08 08:38:25;;;;;;;6.47;1.10;;;7.90;10.00;;;;;;7359022;19;20014;-61
2022/04/08 08:40:56;;;;;;;6.50;1.45;;;7.90;11.10;;;;;;7358253;19;20078;-61
2022/04/08 08:43:29;;;;;;;3.67;1.00;;;8.10;13.50;;;;;;7382234;19;20315;-61
2022/04/08 08:46:00;;;;;;;4.32;1.27;;;8.00;12.30;;;;;;7362633;19;20006;-61
2022/04/08 08:48:33;;;;;;;2.75;0.80;;;7.90;15.20;;;;;;7358426;19;20017;-60
2022/04/08 08:51:05;;;;;;;2.15;0.90;;;7.90;16.10;;;;;;7360976;19;20010;-61
2022/04/08 08:53:36;;;;;;;6.53;1.40;;;7.90;17.00;;;;;;7357943;19;20415;-61
2022/04/08 08:56:09;;;;;;;4.70;1.25;;;7.80;18.60;;;;;;7362851;19;20010;-61
2022/04/08 08:58:42;;;;;;;5.78;1.52;;;7.70;16.70;;;;;;7357901;19;20022;-60
2022/04/08 09:01:13;;;;;;;6.85;1.25;;;7.70;18.70;;;;;;7384507;19;20558;-61
2022/04/08 09:03:44;;;;;;;8.95;1.27;;;7.80;22.20;;;;;;7359738;19;20041;-60
2022/04/08 09:06:16;;;;;;;4.78;1.15;;;8.00;22.20;;;;;;7361268;19;20779;-61
2022/04/08 09:08:56;;;;;;;2.60;1.27;;;8.00;20.80;;;;;;7362557;19;20014;-62
2022/04/08 09:11:27;;;;;;;2.38;1.10;;;8.00;21.50;;;;;;7369981;19;20065;-61
2022/04/08 09:14:04;;;;;;;4.95;1.58;;;8.00;19.60;;;;;;7364941;19;20493;-62
2022/04/08 09:16:39;;;;;;;3.42;1.67;;;8.10;23.30;;;;;;7369194;19;20410;-63
2022/04/08 09:19:14;;;;;;;4.53;1.10;;;8.00;23.50;;;;;;7385426;19;20018;-62
2022/04/08 09:21:54;;;;;;;2.67;1.05;;;8.00;22.60;;;;;;7369439;19;20011;-61
2022/04/08 09:24:25;;;;;;;2.88;0.70;;;7.90;19.60;;;;;;7368196;19;20061;-61
2022/04/08 09:26:55;;;;;;;3.75;1.20;;;7.70;17.90;;;;;;7368849;19;20026;-61
2022/04/08 09:29:28;;;;;;;1.98;1.13;;;7.90;21.40;;;;;;7362131;19;20015;-60
2022/04/08 09:32:18;;;;;;;2.65;0.82;;;7.90;23.00;;;;;;7365664;19;20010;-61
2022/04/08 09:34:53;;;;;;;2.47;0.80;;;7.80;24.80;;;;;;7367324;19;20399;-61
2022/04/08 09:37:23;;;;;;;1.70;0.95;;;7.80;23.20;;;;;;7389667;19;20025;-61
2022/04/08 09:39:58;;;;;;;4.10;1.30;;;7.80;24.10;;;;;;7361085;19;20082;-62
2022/04/08 09:42:42;;;;;;;;;;;7.80;25.90;;;;;;7366098;19;20014;-61
2022/04/08 09:45:16;;;;;;;3.22;1.15;;;7.70;26.20;;;;;;7368905;19;20664;-61
2022/04/08 09:47:45;;;;;;;4.82;1.50;;;7.60;26.50;;;;;;7367439;19;20085;-61
2022/04/08 09:50:15;;;;;;;3.13;0.77;;;7.60;25.80;;;;;;7362043;19;20090;-61
2022/04/08 09:52:47;;;;;;;2.45;0.70;;;7.60;26.30;;;;;;7365235;19;20037;-61
2022/04/08 09:55:19;;;;;;;2.72;0.90;;;7.60;25.80;;;;;;7388553;19;20053;-62
2022/04/08 09:57:53;;;;;;;2.17;0.70;;;7.40;24.20;;;;;;7366833;19;20018;-61
2022/04/08 10:00:26;;;;;;;3.80;1.00;;;7.40;22.70;;;;;;7362632;19;20028;-61
2022/04/08 10:02:59;;;;;;;2.72;1.17;;;7.40;23.00;;;;;;7365297;19;20015;-61
2022/04/08 10:05:29;;;;;;;1.50;0.75;;;7.30;21.20;;;;;;7366663;19;20010;-60
2022/04/08 10:07:59;;;;;;;2.17;0.80;;;7.30;23.70;;;;;;7367357;19;20716;-62
2022/04/08 10:10:35;;;;;;;2.33;1.00;;;7.20;22.40;;;;;;7385136;19;20115;-63
2022/04/08 10:13:30;;;;;;;3.42;0.90;;;7.40;25.90;;;;;;7365085;19;20103;-61
2022/04/08 10:16:16;;;;;;;1.55;0.70;;;7.30;18.70;;;;;;7366242;19;20015;-61
2022/04/08 10:18:48;;;;;;;2.20;1.38;;;7.10;17.50;;;;;;7359009;19;20430;-62
2022/04/08 10:21:18;;;;;;;1.10;0.73;;;6.90;13.80;;;;;;7366507;19;20162;-63
2022/04/08 10:23:51;;;;;;;2.95;0.80;;;7.10;19.90;;;;;;7362180;19;20021;-61
2022/04/08 10:26:23;;;;;;;1.15;0.50;;;7.30;22.70;;;;;;7366578;19;20029;-63
2022/04/08 10:28:55;;;;;;;2.95;0.85;;;7.00;21.70;;;;;;7361206;19;20020;-62
2022/04/08 10:31:29;;;;;;;2.63;0.60;;;7.10;20.80;;;;;;7387287;19;20014;-63
2022/04/08 10:34:03;;;;;;;1.63;0.80;;;7.00;20.90;;;;;;7361876;19;20014;-62
2022/04/08 10:36:37;;;;;;;2.03;0.73;;;7.20;23.90;;;;;;7367288;19;20015;-61
2022/04/08 10:39:15;;;;;;;9.90;6.00;;;6.90;20.80;;;;;;7359291;19;20007;-61
2022/04/08 10:41:48;;;;;;;;;;;7.20;27.90;;;;;;7366708;19;20014;-61
2022/04/08 10:44:19;;;;;;;3.05;1.40;;;7.20;27.80;;;;;;7367254;19;19923;-63
2022/04/08 10:46:55;;;;;;;1.48;0.70;;;7.40;28.50;;;;;;7365649;19;20074;-63
2022/04/08 10:49:25;;;;;;;1.40;0.60;;;7.30;26.10;;;;;;7380290;19;20010;-62
2022/04/08 10:51:55;;;;;;;2.38;0.75;;;7.20;22.50;;;;;;7361483;19;20066;-61
2022/04/08 10:54:36;;;;;;;1.33;1.05;;;7.10;20.50;;;;;;7362416;19;20018;-63
2022/04/08 10:57:06;;;;;;;1.10;0.73;;;7.20;22.30;;;;;;7364559;19;20018;-62
2022/04/08 10:59:37;;;;;;;5.97;1.20;;;6.80;14.10;;;;;;7360828;19;20021;-62
2022/04/08 11:02:14;;;;;;;1.80;1.00;;;6.90;24.10;;;;;;7361867;19;20764;-62
2022/04/08 11:04:44;;;;;;;3.75;1.00;;;6.80;25.20;;;;;;7363195;19;20018;-63
2022/04/08 11:07:14;;;;;;;1.85;1.00;;;7.00;27.70;;;;;;7386079;19;20018;-63
2022/04/08 11:09:44;;;;;;;2.05;1.05;;;7.00;29.70;;;;;;7356721;19;20029;-63
2022/04/08 11:12:14;;;;;;;2.33;1.15;;;6.80;28.30;;;;;;7358544;19;20006;-62
2022/04/08 11:14:54;;;;;;;1.40;0.90;;;6.70;28.90;;;;;;7363800;19;20017;-62
2022/04/08 11:17:36;;;;;;;0.93;0.50;;;6.80;30.90;;;;;;7363235;19;20019;-62
2022/04/08 11:20:07;;;;;;;2.35;1.10;;;6.70;28.00;;;;;;7357908;19;20015;-62
2022/04/08 11:22:44;;;;;;;1.30;0.80;;;6.70;28.30;;;;;;7361829;19;20089;-63
2022/04/08 11:25:22;;;;;;;1.50;0.65;;;6.70;30.00;;;;;;7384226;19;20035;-62
2022/04/08 11:28:03;;;;;;;0.82;0.55;;;6.60;27.40;;;;;;7363433;19;20127;-61
2022/04/08 11:30:34;;;;;;;1.13;0.82;;;6.60;27.40;;;;;;7359523;19;20010;-61
2022/04/08 11:33:15;;;;;;;2.30;0.90;;;6.60;24.20;;;;;;7361529;19;20010;-63
2022/04/08 11:35:46;;;;;;;1.48;0.98;;;6.60;26.00;;;;;;7363214;19;20022;-64
2022/04/08 11:38:16;;;;;;;0.98;0.73;;;6.50;26.60;;;;;;7363081;19;20014;-62
2022/04/08 11:40:49;;;;;;;2.28;0.90;;;6.60;27.40;;;;;;7358713;19;20018;-62
2022/04/08 11:43:21;;;;;;;2.13;1.10;;;6.70;25.60;;;;;;7382365;19;20420;-62
2022/04/08 11:45:52;;;;;;;1.20;1.00;;;6.70;27.50;;;;;;7360842;19;20011;-62
2022/04/08 11:48:26;;;;;;;1.67;1.30;;;6.90;28.90;;;;;;7362724;19;20015;-63
2022/04/08 11:51:08;;;;;;;3.25;1.60;;;6.80;29.30;;;;;;7359805;19;20454;-62
2022/04/08 11:53:45;;;;;;;3.03;2.03;;;6.80;32.00;;;;;;7357449;19;20086;-63
2022/04/08 11:56:22;;;;;;;3.15;1.40;;;6.80;30.80;;;;;;7362345;19;20583;-63
2022/04/08 11:58:59;;;;;;;1.00;0.85;;;6.60;30.40;;;;;;7356535;19;20022;-62
2022/04/08 12:01:33;;;;;;;1.85;1.10;;;6.50;26.10;;;;;;7384716;19;20061;-63
2022/04/08 12:04:07;;;;;;;;;;;6.50;28.90;;;;;;7358070;19;20015;-63
2022/04/08 12:06:40;;;;;;;1.33;0.80;;;6.60;30.50;;;;;;7363077;19;19915;-62
2022/04/08 12:09:11;;;;;;;0.80;0.70;;;6.30;28.60;;;;;;7356212;19;20044;-62
2022/04/08 12:11:42;;;;;;;4.32;1.30;;;6.30;29.80;;;;;;7363351;19;20011;-62
2022/04/08 12:14:20;;;;;;;3.75;1.45;;;6.40;32.60;;;;;;7362606;19;20006;-62
2022/04/08 12:16:51;;;;;;;2.80;1.38;;;6.60;35.10;;;;;;7363744;19;20060;-61
2022/04/08 12:19:25;;;;;;;2.35;1.42;;;6.50;35.00;;;;;;7378188;19;20459;-61
2022/04/08 12:22:11;;;;;;;1.95;1.40;;;6.40;36.20;;;;;;7360007;19;20011;-63
2022/04/08 12:24:42;;;;;;;2.83;1.90;;;6.20;37.00;;;;;;7359233;19;20450;-63
2022/04/08 12:27:19;;;;;;;4.60;2.22;;;6.40;42.00;;;;;;7359083;19;20015;-62
2022/04/08 12:30:00;;;;;;;10.13;2.08;;;6.40;40.80;;;;;;7353906;19;20098;-62
2022/04/08 12:32:38;;;;;;;4.78;2.80;;;6.40;41.50;;;;;;7357977;19;20010;-63
2022/04/08 12:35:12;;;;;;;6.28;2.10;;;6.40;41.30;;;;;;7361524;19;20014;-64
2022/04/08 12:37:42;;;;;;;1.45;1.35;;;6.50;42.10;;;;;;7363238;19;20010;-62
2022/04/08 12:40:12;;;;;;;2.78;1.77;;;6.40;39.50;;;;;;7378004;19;20367;-61
2022/04/08 12:42:42;;;;;;;2.95;2.55;;;6.40;39.60;;;;;;7358456;19;20015;-63
2022/04/08 12:45:13;;;;;;;6.40;5.15;;;6.30;40.20;;;;;;7361929;19;20073;-62
2022/04/08 12:47:43;;;;;;;4.75;2.40;;;6.30;42.10;;;;;;7363078;19;20355;-63
2022/04/08 12:50:15;;;;;;;3.22;2.15;;;6.30;41.20;;;;;;7358072;19;20039;-62
2022/04/08 12:52:45;;;;;;;4.18;2.03;;;6.30;42.00;;;;;;7359877;19;20470;-61
2022/04/08 12:55:18;;;;;;;3.10;2.10;;;6.30;42.10;;;;;;7382165;19;20014;-63
2022/04/08 12:57:49;;;;;;;2.90;2.15;;;6.20;41.80;;;;;;7361495;19;20010;-61
2022/04/08 13:00:24;;;;;;;2.70;1.70;;;6.40;44.50;;;;;;7356463;19;20026;-61
2022/04/08 13:02:55;;;;;;;4.43;1.70;;;6.30;43.20;;;;;;7361153;19;20493;-62
2022/04/08 13:05:27;;;;;;;3.03;1.80;;;6.20;43.20;;;;;;7360289;19;20078;-62
2022/04/08 13:07:57;;;;;;;4.95;2.35;;;6.20;43.20;;;;;;7363633;19;20006;-61
2022/04/08 13:10:27;;;;;;;1.98;1.42;;;6.30;43.40;;;;;;7378471;19;20085;-61
2022/04/08 13:12:57;;;;;;;2.60;1.48;;;6.30;43.30;;;;;;7357971;19;20011;-62
2022/04/08 13:15:28;;;;;;;1.95;1.40;;;6.10;43.10;;;;;;7356473;19;20018;-61
2022/04/08 13:18:01;;;;;;;2.47;1.60;;;6.00;44.10;;;;;;7361373;19;20081;-63
2022/04/08 13:20:33;;;;;;;2.15;1.40;;;6.20;44.80;;;;;;7355050;19;20018;-62
2022/04/08 13:23:04;;;;;;;1.73;1.60;;;6.10;43.60;;;;;;7358853;19;20038;-62
2022/04/08 13:25:34;;;;;;;1.70;1.25;;;6.00;43.80;;;;;;7381340;19;20042;-63
2022/04/08 13:28:04;;;;;;;3.15;1.50;;;6.00;43.40;;;;;;7362697;19;20017;-62